Time;durP1;ratioP1;P1;durP2;ratioP2;P2;SDS_P1;SDS_P2;PMS_P1;PMS_P2;Temp;Humidity;BMP_temperature;BMP_pressure;BME280_temperature;BME280_humidity;BME280_pressure;Samples;Min_cycle;Max_cycle;Signal;HPM_P1;HPM_P2
2022/12/12 00:01:22;;;;;;;100.28;65.80;;;;;;;8.15;86.41;98664.53;5090388;28;20036;-28
2022/12/12 00:03:48;;;;;;;42.33;30.05;;;;;;;7.97;86.52;98636.31;5071486;28;20035;-27
2022/12/12 00:06:14;;;;;;;148.05;89.18;;;;;;;8.15;86.47;98639.78;5089935;28;20032;-29
2022/12/12 00:08:40;;;;;;;71.88;49.20;;;;;;;8.03;87.37;98664.56;5089888;28;20028;-27
2022/12/12 00:11:05;;;;;;;85.05;59.20;;;;;;;7.89;88.51;98673.84;5071475;28;20024;-30
2022/12/12 00:13:31;;;;;;;87.32;60.08;;;;;;;7.91;88.64;98676.25;5089439;28;20060;-28
2022/12/12 00:15:57;;;;;;;123.68;76.97;;;;;;;8.04;87.33;98671.47;5071346;28;20036;-30
2022/12/12 00:18:22;;;;;;;47.58;33.08;;;;;;;7.91;87.38;98679.72;5089531;28;20105;-33
2022/12/12 00:20:55;;;;;;;67.05;47.42;;;;;;;7.74;87.52;98676.16;5089446;28;20106;-32
2022/12/12 00:23:21;;;;;;;9.70;5.45;;;;;;;7.53;90.33;98696.97;5089422;28;20043;-31
2022/12/12 00:25:56;;;;;;;6.35;3.22;;;;;;;7.31;91.64;98691.44;5089229;28;20032;-29
2022/12/12 00:28:22;;;;;;;14.90;7.55;;;;;;;7.33;92.20;98697.31;5089520;28;20122;-28
2022/12/12 00:30:48;;;;;;;21.23;15.30;;;;;;;7.68;90.63;98703.63;5071273;28;20096;-30
2022/12/12 00:33:13;;;;;;;22.50;16.55;;;;;;;7.57;90.73;98692.81;5089463;28;20040;-30
2022/12/12 00:35:39;;;;;;;22.95;19.15;;;;;;;8.07;88.45;98687.97;5089224;28;20388;-31
2022/12/12 00:38:04;;;;;;;9.38;6.60;;;;;;;7.94;88.57;98689.84;5071020;28;20473;-28
2022/12/12 00:40:30;;;;;;;10.40;7.18;;;;;;;7.75;88.93;98693.72;5070678;28;20488;-30
2022/12/12 00:42:55;;;;;;;17.77;13.88;;;;;;;7.57;89.74;98702.63;5071201;28;20034;-28
2022/12/12 00:45:20;;;;;;;23.17;15.77;;;;;;;7.37;90.44;98713.59;5089310;28;20111;-28
2022/12/12 00:47:46;;;;;;;25.40;19.85;;;;;;;7.47;88.97;98716.47;5088892;28;20110;-30
2022/12/12 00:50:11;;;;;;;19.50;16.65;;;;;;;7.36;90.41;98719.94;5089040;28;20024;-29
2022/12/12 00:52:36;;;;;;;8.25;5.68;;;;;;;7.41;89.57;98720.03;5070401;28;20039;-30
2022/12/12 00:55:02;;;;;;;6.05;4.00;;;;;;;7.42;90.87;98701.25;5088768;28;20492;-28
2022/12/12 00:57:28;;;;;;;5.05;2.88;;;;;;;7.47;89.88;98713.81;5070574;28;20068;-28
2022/12/12 00:59:53;;;;;;;12.70;10.05;;;;;;;7.41;90.67;98725.34;5088936;28;20024;-29
2022/12/12 01:02:18;;;;;;;18.10;16.23;;;;;;;7.32;90.26;98721.44;5088694;28;20028;-31
2022/12/12 01:04:44;;;;;;;5.85;3.60;;;;;;;7.57;89.15;98719.34;5089059;28;20032;-27
2022/12/12 01:07:09;;;;;;;14.23;9.48;;;;;;;7.44;89.48;98711.63;5088679;28;20054;-28
2022/12/12 01:09:35;;;;;;;38.35;24.33;;;;;;;7.08;90.66;98697.56;5069546;28;20054;-28
2022/12/12 01:12:00;;;;;;;32.35;19.58;;;;;;;6.88;92.45;98691.78;5070154;28;20028;-26
2022/12/12 01:14:26;;;;;;;44.65;24.65;;;;;;;6.97;92.39;98714.25;5088790;28;20032;-27
2022/12/12 01:16:51;;;;;;;18.33;6.57;;;;;;;6.78;92.97;98719.66;5088312;28;20031;-28
2022/12/12 01:19:17;;;;;;;6.43;3.45;;;;;;;6.75;93.78;98737.84;5088656;28;20100;-28
2022/12/12 01:21:42;;;;;;;5.43;2.35;;;;;;;6.89;92.30;98743.75;5088318;28;20484;-29
2022/12/12 01:24:08;;;;;;;5.75;2.50;;;;;;;7.03;91.13;98745.16;5103752;28;20126;-30
2022/12/12 01:26:33;;;;;;;7.60;3.00;;;;;;;7.06;90.61;98736.75;5088549;28;20182;-27
2022/12/12 01:28:59;;;;;;;11.00;4.20;;;;;;;6.89;92.06;98712.75;5088838;28;20123;-28
2022/12/12 01:31:24;;;;;;;20.33;11.82;;;;;;;7.01;91.69;98737.44;5088280;28;20128;-29
2022/12/12 01:33:50;;;;;;;12.55;6.15;;;;;;;6.65;92.75;98738.38;5088252;28;20523;-29
2022/12/12 01:36:18;;;;;;;8.80;3.97;;;;;;;6.58;92.71;98769.47;5088238;28;20441;-30
2022/12/12 01:38:48;;;;;;;4.80;2.67;;;;;;;6.29;94.02;98779.78;5069838;28;20028;-30
2022/12/12 01:41:15;;;;;;;8.05;3.22;;;;;;;6.44;93.86;98772.28;5088778;28;20043;-28
2022/12/12 01:43:40;;;;;;;5.35;2.67;;;;;;;6.78;91.85;98795.66;5069678;28;20415;-27
2022/12/12 01:46:21;;;;;;;4.82;2.40;;;;;;;6.87;90.83;98798.81;5088060;28;20028;-28
2022/12/12 01:48:57;;;;;;;3.60;2.15;;;;;;;6.38;92.76;98781.09;5088105;28;20034;-27
2022/12/12 01:51:25;;;;;;;3.72;2.08;;;;;;;6.52;92.95;98802.94;5087751;28;20068;-32
2022/12/12 01:53:57;;;;;;;5.05;2.35;;;;;;;6.10;94.59;98791.44;5087875;28;20523;-31
2022/12/12 01:56:23;;;;;;;3.80;2.03;;;;;;;6.33;93.59;98804.78;5087790;28;20044;-27
2022/12/12 01:58:51;;;;;;;2.60;1.98;;;;;;;6.45;93.81;98807.50;5087965;28;20025;-29
2022/12/12 02:01:18;;;;;;;4.13;2.03;;;;;;;6.34;93.34;98798.47;5087833;28;20092;-27
2022/12/12 02:03:45;;;;;;;2.63;1.85;;;;;;;6.41;94.75;98811.63;5087467;28;20040;-31
2022/12/12 02:06:16;;;;;;;3.13;1.90;;;;;;;6.12;95.57;98813.19;5087605;28;20043;-30
2022/12/12 02:08:43;;;;;;;3.78;1.80;;;;;;;5.82;96.29;98811.22;5087960;28;20028;-28
2022/12/12 02:11:08;;;;;;;3.67;2.00;;;;;;;6.02;95.45;98803.91;5087810;28;20056;-29
2022/12/12 02:13:35;;;;;;;3.20;1.55;;;;;;;5.91;96.66;98811.75;5087520;28;20036;-28
2022/12/12 02:16:37;;;;;;;3.53;1.75;;;;;;;6.43;95.25;98815.66;5087368;28;20089;-30
2022/12/12 02:19:34;;;;;;;3.88;1.90;;;;;;;6.23;94.93;98815.09;5068914;28;20066;-28
2022/12/12 02:22:02;;;;;;;4.00;2.30;;;;;;;6.23;94.15;98815.09;5087227;28;20020;-28
2022/12/12 02:24:43;;;;;;;4.63;2.47;;;;;;;6.24;95.43;98808.78;5068979;28;20028;-29
2022/12/12 02:27:39;;;;;;;4.68;2.58;;;;;;;6.48;94.76;98815.00;5069041;28;20024;-31
2022/12/12 02:30:21;;;;;;;5.50;3.15;;;;;;;6.49;94.07;98823.75;5087206;28;20542;-27
2022/12/12 02:33:01;;;;;;;5.50;3.08;;;;;;;6.62;91.55;98829.72;5087271;28;20428;-30
2022/12/12 02:35:50;;;;;;;33.78;28.48;;;;;;;6.36;92.21;98827.38;5087722;28;20032;-27
2022/12/12 02:38:30;;;;;;;21.77;18.40;;;;;;;5.81;94.31;98810.41;5068826;28;20024;-32
2022/12/12 02:41:08;;;;;;;8.38;6.18;;;;;;;5.78;95.44;98820.63;5068876;28;20122;-28
2022/12/12 02:43:51;;;;;;;10.03;7.00;;;;;;;6.01;94.49;98834.06;5086921;28;20036;-27
2022/12/12 02:46:23;;;;;;;10.65;5.88;;;;;;;6.38;93.06;98823.47;5086821;28;20020;-28
2022/12/12 02:48:53;;;;;;;12.05;4.35;;;;;;;5.95;95.46;98828.84;5087311;28;20031;-28
2022/12/12 02:51:19;;;;;;;7.70;4.07;;;;;;;5.63;96.99;98827.06;5068857;28;20028;-30
2022/12/12 02:53:45;;;;;;;8.82;4.60;;;;;;;5.64;97.91;98843.75;5068298;28;20043;-28
2022/12/12 02:56:41;;;;;;;75.97;50.22;;;;;;;5.82;97.37;98846.44;5087184;28;20035;-28
2022/12/12 02:59:08;;;;;;;37.83;31.33;;;;;;;6.05;95.89;98858.25;5087133;28;20039;-32
2022/12/12 03:01:40;;;;;;;18.70;12.02;;;;;;;6.16;95.06;98864.66;5068470;28;20641;-28
2022/12/12 03:10:09;;;;;;;7.63;4.70;;;;;;;6.02;93.82;98848.09;5066592;28;20893;-29
2022/12/12 03:12:50;;;;;;;31.65;25.90;;;;;;;5.97;94.13;98853.25;5048390;28;20509;-29
2022/12/12 03:15:22;;;;;;;14.52;10.70;;;;;;;5.68;95.56;98865.25;5066922;28;20068;-32
2022/12/12 03:17:50;;;;;;;22.20;15.77;;;;;;;5.66;95.75;98867.31;5066516;28;20075;-33
2022/12/12 03:20:24;;;;;;;22.73;17.00;;;;;;;5.62;95.85;98873.06;5064880;28;20060;-32
2022/12/12 03:22:54;;;;;;;31.50;25.15;;;;;;;5.61;95.59;98863.47;5066589;28;20459;-30
2022/12/12 03:25:46;;;;;;;43.22;30.20;;;;;;;5.72;95.87;98866.44;5069156;28;21184;-28
2022/12/12 03:28:15;;;;;;;39.67;21.88;;;;;;;5.60;95.00;98845.22;5045275;28;20594;-28
2022/12/12 03:30:45;;;;;;;21.75;15.02;;;;;;;5.55;95.09;98839.75;5086278;28;20020;-27
2022/12/12 03:33:21;;;;;;;8.85;4.95;;;;;;;6.14;93.52;98866.72;5088906;28;20403;-31
2022/12/12 03:35:55;;;;;;;8.55;4.82;;;;;;;6.00;91.76;98847.50;5090235;28;20032;-28
2022/12/12 03:38:31;;;;;;;10.20;4.60;;;;;;;5.47;92.02;98861.97;5069846;28;20024;-28
2022/12/12 03:41:00;;;;;;;8.68;4.85;;;;;;;5.16;94.23;98860.16;5071791;28;20543;-29
2022/12/12 03:43:43;;;;;;;8.70;4.50;;;;;;;5.26;94.15;98864.97;5071782;28;20024;-29
2022/12/12 03:46:19;;;;;;;8.65;4.50;;;;;;;5.26;94.58;98868.44;5088772;28;20078;-28
2022/12/12 03:49:06;;;;;;;9.60;5.00;;;;;;;5.52;93.28;98871.94;5088496;28;20042;-30
2022/12/12 03:51:54;;;;;;;7.20;4.10;;;;;;;5.57;93.38;98872.06;5070968;28;20120;-28
2022/12/12 03:54:36;;;;;;;8.93;4.50;;;;;;;5.32;93.26;98877.34;5087601;28;20024;-27
2022/12/12 03:57:12;;;;;;;7.57;4.20;;;;;;;4.95;93.82;98887.72;5090620;28;20036;-26
2022/12/12 03:59:43;;;;;;;7.78;3.97;;;;;;;5.22;93.70;98897.13;5071941;28;20044;-31
2022/12/12 04:02:34;;;;;;;9.25;4.70;;;;;;;5.34;93.42;98901.72;5090270;28;20028;-31
2022/12/12 04:05:31;;;;;;;8.85;4.22;;;;;;;5.44;93.42;98902.06;5071807;28;20557;-26
2022/12/12 04:08:11;;;;;;;11.48;4.78;;;;;;;5.19;94.71;98897.56;5071559;28;20107;-30
2022/12/12 04:13:52;;;;;;;8.40;4.20;;;;;;;4.68;96.30;98908.97;5090263;28;20085;-27
2022/12/12 04:16:26;;;;;;;8.88;4.20;;;;;;;4.68;97.13;98901.06;5071381;28;20560;-31
2022/12/12 04:19:02;;;;;;;11.90;5.15;;;;;;;4.63;97.08;98911.41;5089997;28;20044;-27
2022/12/12 04:24:58;;;;;;;227.25;69.53;;;;;;;4.43;98.10;98917.59;5089400;28;20047;-29
2022/12/12 04:27:37;;;;;;;33.35;13.73;;;;;;;4.65;97.40;98912.03;5089619;28;20036;-34
2022/12/12 04:30:06;;;;;;;14.93;7.07;;;;;;;4.88;96.31;98914.16;5089608;28;20039;-32
2022/12/12 04:32:31;;;;;;;;;;;;;;;4.96;96.27;98926.31;5071579;28;20447;-30
2022/12/12 04:34:56;;;;;;;19.27;8.77;;;;;;;4.96;95.39;98934.25;5089584;28;19908;-29
2022/12/12 04:37:29;;;;;;;21.48;10.05;;;;;;;4.83;94.89;98920.06;5089549;28;20127;-28
2022/12/12 04:39:58;;;;;;;20.02;9.60;;;;;;;4.93;94.56;98924.13;5089227;28;20095;-30
2022/12/12 04:42:29;;;;;;;20.55;9.35;;;;;;;4.93;93.87;98916.19;5089641;28;20035;-29
2022/12/12 04:45:04;;;;;;;13.73;8.07;;;;;;;4.90;94.62;98898.91;5088015;28;20020;-30
2022/12/12 04:47:30;;;;;;;16.40;8.27;;;;;;;4.93;94.13;98922.28;5070850;28;20038;-34
2022/12/12 04:49:58;;;;;;;19.30;10.43;;;;;;;5.03;94.28;98905.97;5088820;28;20027;-30
2022/12/12 04:52:26;;;;;;;21.10;10.02;;;;;;;4.89;95.13;98901.78;5088959;28;20043;-29
2022/12/12 04:55:10;;;;;;;;;;;;;;;5.00;95.54;98925.69;5089443;28;20084;-29
2022/12/12 04:57:43;;;;;;;38.67;21.67;;;;;;;4.95;96.01;98922.06;5089277;28;19912;-27
2022/12/12 05:00:11;;;;;;;65.07;26.25;;;;;;;4.68;96.58;98902.84;5070835;28;20032;-29
2022/12/12 05:02:40;;;;;;;53.45;20.60;;;;;;;4.83;96.88;98921.91;5070658;28;20089;-28
2022/12/12 05:05:11;;;;;;;54.30;21.33;;;;;;;4.84;97.35;98920.88;5088665;28;20027;-28
2022/12/12 05:07:39;;;;;;;36.58;14.52;;;;;;;4.80;96.83;98933.72;5088744;28;20056;-28
2022/12/12 05:10:15;;;;;;;;;;;;;;;4.66;96.37;98947.97;5071025;28;20032;-27
2022/12/12 05:12:44;;;;;;;18.77;10.40;;;;;;;4.55;97.61;98930.13;5070407;28;20233;-27
2022/12/12 05:15:11;;;;;;;18.23;10.05;;;;;;;4.32;97.51;98922.69;5088997;28;20024;-30
2022/12/12 05:18:07;;;;;;;18.75;9.15;;;;;;;4.39;97.31;98953.34;5053676;28;20076;-32
2022/12/12 05:20:33;;;;;;;18.30;9.30;;;;;;;4.31;98.60;98960.63;5075533;28;20048;-29
2022/12/12 05:22:59;;;;;;;13.40;7.60;;;;;;;4.13;97.63;98948.91;5088635;28;20551;-29
2022/12/12 05:25:24;;;;;;;12.18;6.72;;;;;;;4.15;97.44;98961.88;5070366;28;20031;-27
2022/12/12 05:27:50;;;;;;;13.35;6.13;;;;;;;4.39;96.36;98965.69;5088246;28;20032;-31
2022/12/12 05:30:15;;;;;;;10.80;5.70;;;;;;;4.33;95.16;98967.34;5088283;28;20060;-27
2022/12/12 05:32:41;;;;;;;11.18;5.50;;;;;;;4.01;96.91;98946.06;5088563;28;20028;-29
2022/12/12 05:35:07;;;;;;;10.23;4.63;;;;;;;4.01;96.95;98959.25;5088430;28;20368;-33
2022/12/12 05:37:33;;;;;;;10.02;5.00;;;;;;;3.89;97.45;98947.69;5070277;28;20392;-28
2022/12/12 05:39:58;;;;;;;10.30;5.05;;;;;;;4.21;97.74;98990.09;5069957;28;20019;-28
2022/12/12 05:42:24;;;;;;;11.77;5.93;;;;;;;4.27;96.02;98970.81;5088196;28;20048;-27
2022/12/12 05:44:50;;;;;;;15.20;8.07;;;;;;;4.51;97.13;98989.66;5088136;28;20035;-33
2022/12/12 05:47:17;;;;;;;24.70;12.68;;;;;;;4.51;96.85;98971.97;5088388;28;20030;-28
2022/12/12 05:49:43;;;;;;;22.52;12.25;;;;;;;4.62;96.22;98965.25;5069625;28;20060;-29
2022/12/12 05:52:08;;;;;;;23.73;11.85;;;;;;;4.70;96.12;98977.41;5069613;28;20047;-28
2022/12/12 05:54:33;;;;;;;25.90;12.32;;;;;;;4.95;95.12;98993.41;5087713;28;20028;-30
2022/12/12 05:56:59;;;;;;;23.70;11.20;;;;;;;4.82;95.60;98975.75;5087907;28;20449;-27
2022/12/12 05:59:24;;;;;;;20.92;10.85;;;;;;;4.72;96.20;98963.00;5087515;28;20028;-27
2022/12/12 06:01:51;;;;;;;21.65;11.07;;;;;;;5.16;95.36;98990.47;5087801;28;20085;-30
2022/12/12 06:04:16;;;;;;;23.25;11.40;;;;;;;5.31;94.99;98976.16;5087989;28;20028;-29
2022/12/12 06:06:43;;;;;;;22.63;11.40;;;;;;;5.22;95.71;98989.63;5069536;28;20093;-29
2022/12/12 06:09:08;;;;;;;19.00;10.98;;;;;;;5.19;96.25;98983.94;5052910;28;20031;-29
2022/12/12 06:11:33;;;;;;;18.73;10.48;;;;;;;5.26;95.82;98989.22;5088115;28;20028;-32
2022/12/12 06:13:59;;;;;;;16.50;9.82;;;;;;;4.83;96.97;99001.16;5087193;28;20020;-29
2022/12/12 06:16:24;;;;;;;33.88;19.33;;;;;;;4.63;97.23;98985.34;5087686;28;20051;-31
2022/12/12 06:18:52;;;;;;;32.35;18.98;;;;;;;4.46;99.42;98989.47;5087435;28;20048;-27
2022/12/12 06:21:18;;;;;;;31.27;15.65;;;;;;;4.40;100.00;99012.22;5087396;28;20122;-28
2022/12/12 06:23:43;;;;;;;25.30;13.00;;;;;;;4.65;97.72;99020.28;5086984;28;20130;-27
2022/12/12 06:26:11;;;;;;;28.83;15.43;;;;;;;4.54;98.75;99015.66;5087321;28;20085;-29
2022/12/12 06:28:37;;;;;;;37.03;22.08;;;;;;;4.45;99.00;98998.38;5087336;28;20063;-31
2022/12/12 06:31:04;;;;;;;29.10;16.83;;;;;;;4.36;99.77;99006.53;5087447;28;20107;-30
2022/12/12 06:33:34;;;;;;;33.33;16.15;;;;;;;4.57;99.13;99023.94;5086964;28;20036;-32
2022/12/12 06:36:01;;;;;;;33.55;17.67;;;;;;;4.54;98.79;99007.72;5087078;28;20035;-28
2022/12/12 06:38:28;;;;;;;31.63;16.63;;;;;;;4.66;100.00;99032.50;5087494;28;20123;-30
2022/12/12 06:40:53;;;;;;;35.30;18.35;;;;;;;4.68;100.00;99035.75;5068583;28;20031;-27
2022/12/12 06:43:19;;;;;;;32.88;17.20;;;;;;;4.81;98.64;99030.41;5069048;28;20035;-31
2022/12/12 06:45:44;;;;;;;25.88;12.85;;;;;;;5.08;97.41;99043.56;5086924;28;20478;-28
2022/12/12 06:48:09;;;;;;;24.83;12.18;;;;;;;5.38;96.15;99045.69;5069035;28;20039;-29
2022/12/12 06:50:38;;;;;;;24.98;10.80;;;;;;;5.37;95.58;99054.63;5068565;28;20092;-28
2022/12/12 06:53:04;;;;;;;22.90;11.18;;;;;;;5.38;96.50;99058.91;5052249;28;20035;-28
2022/12/12 06:55:29;;;;;;;19.88;11.38;;;;;;;5.24;98.27;99066.88;5086654;28;20081;-33
2022/12/12 06:57:55;;;;;;;18.38;9.10;;;;;;;5.16;97.81;99069.75;5087252;28;20035;-27
2022/12/12 07:00:20;;;;;;;17.35;8.95;;;;;;;5.21;98.39;99069.97;5086995;28;20028;-30
2022/12/12 07:02:46;;;;;;;16.35;8.65;;;;;;;5.05;98.71;99049.28;5068569;28;20501;-28
2022/12/12 07:05:11;;;;;;;17.35;8.68;;;;;;;5.52;97.03;99062.31;5086954;28;20035;-31
2022/12/12 07:07:37;;;;;;;14.32;7.10;;;;;;;5.63;96.98;99056.34;5088407;28;20123;-28
2022/12/12 07:10:03;;;;;;;16.33;7.32;;;;;;;5.53;97.07;99069.22;5090942;28;20028;-28
2022/12/12 07:12:29;;;;;;;13.80;7.25;;;;;;;5.53;98.31;99077.16;5072667;28;20032;-28
2022/12/12 07:14:54;;;;;;;17.25;8.32;;;;;;;5.38;98.71;99048.34;5091272;28;20399;-26
2022/12/12 07:17:20;;;;;;;18.70;8.93;;;;;;;5.46;98.71;99074.53;5072743;28;20423;-30
2022/12/12 07:19:45;;;;;;;19.88;9.77;;;;;;;5.58;99.21;99067.56;5072912;28;20028;-26
2022/12/12 07:22:10;;;;;;;38.33;22.13;;;;;;;5.69;98.96;99068.72;5091039;28;20706;-27
2022/12/12 07:24:37;;;;;;;45.95;27.08;;;;;;;5.91;98.28;99082.47;5072230;28;20020;-27
2022/12/12 07:27:02;;;;;;;54.50;31.63;;;;;;;6.12;97.83;99080.53;5091219;28;20032;-29
2022/12/12 07:29:28;;;;;;;47.92;25.08;;;;;;;6.35;96.32;99083.41;5090664;28;20024;-28
2022/12/12 07:31:53;;;;;;;51.40;23.58;;;;;;;6.40;96.25;99091.53;5072265;28;20027;-30
2022/12/12 07:34:19;;;;;;;54.13;24.77;;;;;;;6.55;94.42;99099.16;5072321;28;20031;-32
2022/12/12 07:36:44;;;;;;;64.40;27.90;;;;;;;6.62;95.12;99115.00;5090843;28;20032;-27
2022/12/12 07:39:10;;;;;;;68.78;29.98;;;;;;;6.53;96.08;99116.28;5090971;28;20039;-28
2022/12/12 07:41:35;;;;;;;56.53;27.10;;;;;;;6.63;96.20;99121.91;5072405;28;20028;-27
2022/12/12 07:44:01;;;;;;;40.63;21.65;;;;;;;6.67;97.13;99117.81;5090667;28;20154;-27
2022/12/12 07:46:27;;;;;;;48.50;23.42;;;;;;;6.96;96.75;99111.03;5090007;28;20028;-29
2022/12/12 07:48:52;;;;;;;53.33;26.75;;;;;;;6.95;95.32;99108.59;5090235;28;20161;-27
2022/12/12 07:51:18;;;;;;;71.78;34.22;;;;;;;6.91;96.25;99102.94;5090455;28;20036;-29
2022/12/12 07:53:44;;;;;;;38.08;20.17;;;;;;;6.94;94.57;99107.78;5090492;28;20515;-30
2022/12/12 07:56:12;;;;;;;33.65;16.65;;;;;;;7.11;94.58;99109.84;5071663;28;20040;-28
2022/12/12 07:58:37;;;;;;;22.98;12.20;;;;;;;7.14;92.85;99118.19;5090336;28;20024;-28
2022/12/12 08:01:11;;;;;;;19.98;11.45;;;;;;;7.27;92.11;99129.69;5090252;28;20074;-28
2022/12/12 08:03:36;;;;;;;28.60;14.68;;;;;;;7.50;92.19;99108.63;5089488;28;20491;-30
2022/12/12 08:06:05;;;;;;;29.48;15.55;;;;;;;7.91;89.25;99138.97;5070906;28;20032;-28
2022/12/12 08:08:31;;;;;;;22.27;11.98;;;;;;;7.80;90.91;99115.81;5089207;28;20128;-29
2022/12/12 08:10:56;;;;;;;15.38;9.65;;;;;;;7.72;90.84;99116.13;5089574;28;20103;-30
2022/12/12 08:13:22;;;;;;;38.80;16.83;;;;;;;7.69;89.88;99135.16;5071538;28;20131;-27
2022/12/12 08:15:47;;;;;;;39.85;17.67;;;;;;;7.90;91.13;99137.31;5089578;28;20081;-29
2022/12/12 08:18:13;;;;;;;30.77;17.38;;;;;;;8.05;89.40;99124.47;5089776;28;20056;-28
2022/12/12 08:20:39;;;;;;;31.70;15.35;;;;;;;8.28;89.23;99141.53;5089682;28;20035;-28
2022/12/12 08:23:06;;;;;;;37.38;16.98;;;;;;;8.17;87.52;99126.34;5089506;28;20043;-30
2022/12/12 08:25:32;;;;;;;28.30;15.77;;;;;;;8.22;88.98;99129.16;5071154;28;20034;-27
2022/12/12 08:27:58;;;;;;;30.77;17.10;;;;;;;8.44;88.11;99137.44;5089626;28;20391;-28
2022/12/12 08:30:23;;;;;;;28.65;13.77;;;;;;;8.21;88.75;99148.75;5071189;28;20032;-35
2022/12/12 08:32:49;;;;;;;17.38;10.45;;;;;;;8.50;86.95;99141.00;5089479;28;20427;-31
2022/12/12 08:35:14;;;;;;;18.40;11.50;;;;;;;8.69;85.88;99150.53;5089532;28;20426;-31
2022/12/12 08:37:40;;;;;;;16.25;10.57;;;;;;;9.02;85.08;99149.19;5089149;28;20033;-28
2022/12/12 08:40:06;;;;;;;18.42;10.68;;;;;;;9.19;85.02;99142.13;5089493;28;20024;-28
2022/12/12 08:42:31;;;;;;;22.00;14.48;;;;;;;9.41;84.48;99141.53;5089466;28;20032;-27
2022/12/12 08:44:56;;;;;;;28.80;16.88;;;;;;;9.53;83.68;99144.97;5089505;28;20027;-30
2022/12/12 08:47:22;;;;;;;26.25;16.15;;;;;;;9.85;82.77;99139.22;5070979;28;20469;-31
2022/12/12 08:49:47;;;;;;;36.47;19.27;;;;;;;10.12;80.87;99141.34;5089100;28;20410;-28
2022/12/12 08:52:13;;;;;;;31.45;18.52;;;;;;;10.31;81.38;99144.63;5089392;28;20039;-29
2022/12/12 08:54:38;;;;;;;53.40;26.38;;;;;;;10.45;79.77;99146.75;5071096;28;20032;-28
2022/12/12 08:57:04;;;;;;;68.60;33.20;;;;;;;10.57;78.94;99133.34;5089218;28;20032;-31
2022/12/12 08:59:29;;;;;;;58.20;29.73;;;;;;;10.70;78.96;99144.75;5089066;28;20031;-29
2022/12/12 09:01:54;;;;;;;51.13;25.45;;;;;;;11.00;77.55;99147.09;5070338;28;20032;-34
2022/12/12 09:04:20;;;;;;;37.97;22.38;;;;;;;10.77;78.84;99145.41;5089284;28;20047;-29
2022/12/12 09:06:45;;;;;;;24.15;15.05;;;;;;;10.64;79.57;99146.50;5070410;28;20428;-27
2022/12/12 09:09:11;;;;;;;21.95;13.63;;;;;;;10.74;79.72;99153.88;5089059;28;20039;-28
2022/12/12 09:11:36;;;;;;;21.13;12.45;;;;;;;10.68;80.22;99144.97;5089025;28;20028;-31
2022/12/12 09:14:02;;;;;;;13.48;9.23;;;;;;;10.59;78.76;99127.78;5070446;28;20059;-29
2022/12/12 09:16:28;;;;;;;12.93;8.30;;;;;;;10.91;77.58;99138.69;5070263;28;20034;-28
2022/12/12 09:18:54;;;;;;;13.25;9.05;;;;;;;10.91;77.59;99113.84;5070198;28;20060;-27
2022/12/12 09:21:20;;;;;;;15.90;9.20;;;;;;;11.18;78.16;99143.34;5088486;28;20028;-30
2022/12/12 09:23:46;;;;;;;13.63;9.05;;;;;;;11.20;78.80;99147.38;5088799;28;20043;-32
2022/12/12 09:26:12;;;;;;;16.70;9.35;;;;;;;11.35;76.88;99148.66;5070188;28;20031;-28
2022/12/12 09:28:38;;;;;;;12.90;8.40;;;;;;;11.53;76.82;99140.34;5070134;28;20024;-28
2022/12/12 09:31:05;;;;;;;13.63;8.23;;;;;;;11.76;75.75;99122.47;5087280;28;20028;-28
2022/12/12 09:33:31;;;;;;;13.35;6.22;;;;;;;11.91;74.42;99124.53;5088444;28;20031;-32
2022/12/12 09:36:02;;;;;;;9.48;5.97;;;;;;;12.05;73.23;99142.59;5069556;28;20036;-30
2022/12/12 09:38:27;;;;;;;9.82;5.38;;;;;;;12.52;70.69;99140.34;5069927;28;20020;-28
2022/12/12 09:41:10;;;;;;;9.23;5.07;;;;;;;12.37;69.78;99149.06;5069819;28;20036;-28
2022/12/12 09:43:52;;;;;;;8.60;4.00;;;;;;;12.43;67.20;99135.47;5069856;28;20028;-30
2022/12/12 09:46:30;;;;;;;8.75;4.50;;;;;;;12.77;66.74;99131.72;5069539;28;20138;-28
2022/12/12 09:48:59;;;;;;;;;;;;;;;13.00;64.46;99150.09;5088731;28;20055;-35
2022/12/12 09:51:25;;;;;;;6.93;3.72;;;;;;;13.02;64.49;99139.16;5088170;28;19912;-28
2022/12/12 09:53:51;;;;;;;6.70;3.85;;;;;;;12.69;65.56;99118.81;5087815;28;20028;-31
2022/12/12 09:56:42;;;;;;;7.28;3.88;;;;;;;12.53;66.05;99131.28;5087818;28;20571;-29
2022/12/12 09:59:28;;;;;;;6.65;3.92;;;;;;;12.59;68.13;99108.88;5069631;28;20369;-32
2022/12/12 10:02:51;;;;;;;5.85;3.60;;;;;;;13.22;66.89;99128.56;5087598;28;20028;-30
2022/12/12 10:05:25;;;;;;;5.47;3.47;;;;;;;13.62;64.46;99116.47;4988587;28;20033;-30
2022/12/12 10:08:12;;;;;;;5.57;3.35;;;;;;;13.51;62.09;99114.81;5004828;28;20058;-29
2022/12/12 10:10:48;;;;;;;8.20;3.88;;;;;;;12.92;64.09;99096.28;5070759;28;20105;-28
2022/12/12 10:13:18;;;;;;;7.32;4.25;;;;;;;13.10;65.95;99113.75;5069271;28;20094;-28
2022/12/12 10:15:50;;;;;;;8.50;4.80;;;;;;;13.03;63.62;99122.00;5087718;28;20036;-29
2022/12/12 10:18:32;;;;;;;8.93;4.65;;;;;;;13.27;65.38;99117.88;5087247;28;20048;-30
2022/12/12 10:21:05;;;;;;;8.25;4.78;;;;;;;13.89;62.47;99114.69;5068920;28;20028;-29
2022/12/12 10:23:44;;;;;;;7.18;4.32;;;;;;;14.44;62.20;99122.03;5087324;28;20541;-31
2022/12/12 10:26:24;;;;;;;9.82;5.68;;;;;;;14.53;61.69;99113.47;5068972;28;20032;-28
2022/12/12 10:28:53;;;;;;;7.50;4.70;;;;;;;14.66;59.31;99103.00;5087124;28;20122;-28
2022/12/12 10:31:19;;;;;;;7.15;4.40;;;;;;;15.10;59.84;99107.00;5087458;28;20024;-29
2022/12/12 10:34:03;;;;;;;6.97;4.35;;;;;;;15.17;59.25;99107.50;5086913;28;20039;-28
2022/12/12 10:36:49;;;;;;;6.80;4.03;;;;;;;15.16;59.26;99111.28;5068526;28;20168;-31
2022/12/12 10:39:48;;;;;;;6.38;3.92;;;;;;;15.30;60.34;99110.69;5087299;28;20131;-30
2022/12/12 10:42:51;;;;;;;6.63;3.95;;;;;;;14.43;60.18;99098.94;5087085;28;20031;-29
2022/12/12 10:45:28;;;;;;;7.50;4.22;;;;;;;14.34;61.98;99100.53;5068813;28;20024;-33
2022/12/12 10:47:54;;;;;;;6.88;4.22;;;;;;;14.60;61.36;99093.34;5086747;28;20027;-28
2022/12/12 10:50:37;;;;;;;6.60;4.20;;;;;;;15.33;60.00;99094.81;5068725;28;20028;-30
2022/12/12 10:53:05;;;;;;;14.50;8.02;;;;;;;15.90;58.30;99100.78;5068478;28;20031;-34
2022/12/12 10:55:52;;;;;;;8.63;5.10;;;;;;;16.10;57.11;99097.19;5068801;28;20085;-31
2022/12/12 10:58:21;;;;;;;6.72;3.80;;;;;;;15.91;56.26;99088.94;5068551;28;20028;-35
2022/12/12 11:00:48;;;;;;;6.95;4.13;;;;;;;16.31;54.58;99073.63;5067831;28;20392;-28
2022/12/12 11:03:26;;;;;;;8.30;4.30;;;;;;;16.80;54.82;99078.03;5086827;28;20543;-28
2022/12/12 11:05:54;;;;;;;6.55;4.00;;;;;;;17.25;54.63;99062.50;5066487;28;20031;-28
2022/12/12 11:08:26;;;;;;;5.77;3.50;;;;;;;17.40;52.61;99085.78;5067999;28;20040;-32
2022/12/12 11:11:29;;;;;;;7.50;3.22;;;;;;;17.52;50.43;99088.06;5068175;28;20032;-30
2022/12/12 11:13:59;;;;;;;6.05;3.38;;;;;;;17.70;49.80;99089.19;5084297;28;20027;-30
2022/12/12 11:16:27;;;;;;;6.07;3.67;;;;;;;17.47;49.11;99090.84;5083510;28;20569;-29
2022/12/12 11:18:56;;;;;;;6.05;3.17;;;;;;;17.36;49.56;99092.84;5086407;28;20048;-32
2022/12/12 11:21:22;;;;;;;5.30;3.20;;;;;;;17.35;48.39;99088.53;5068094;28;20120;-29
2022/12/12 11:23:52;;;;;;;5.47;3.42;;;;;;;17.58;47.55;99092.31;5086041;28;20502;-33
2022/12/12 11:26:20;;;;;;;6.75;3.60;;;;;;;17.94;47.11;99091.88;5067822;28;20035;-29
2022/12/12 11:28:56;;;;;;;6.93;3.33;;;;;;;17.94;47.13;99059.50;5084031;28;20097;-32
2022/12/12 11:31:25;;;;;;;6.18;3.97;;;;;;;17.44;50.04;99067.16;5068102;28;20093;-31
2022/12/12 11:33:55;;;;;;;6.13;3.80;;;;;;;17.09;53.97;99057.59;5067440;28;20767;-30
2022/12/12 11:36:29;;;;;;;5.85;3.30;;;;;;;17.54;50.31;99060.81;5051696;28;20793;-29
2022/12/12 11:38:56;;;;;;;5.97;3.65;;;;;;;17.96;49.01;99064.59;5068014;28;20032;-32
2022/12/12 11:41:22;;;;;;;7.72;4.00;;;;;;;17.10;48.09;99059.19;5068541;28;20555;-30
2022/12/12 11:43:47;;;;;;;7.03;3.92;;;;;;;16.22;52.62;99056.47;5086144;28;20043;-29
2022/12/12 11:46:12;;;;;;;21.85;11.63;;;;;;;16.23;53.27;99069.66;5068289;28;20182;-28
2022/12/12 11:48:50;;;;;;;12.25;7.55;;;;;;;16.91;53.20;99059.13;5068042;28;20074;-28
2022/12/12 11:51:48;;;;;;;7.72;4.43;;;;;;;17.45;49.05;99052.59;5086310;28;20108;-28
2022/12/12 11:54:25;;;;;;;9.27;4.05;;;;;;;18.52;46.65;99061.03;5043371;28;20036;-32
2022/12/12 11:57:05;;;;;;;11.77;6.43;;;;;;;18.59;47.93;99022.81;5090463;28;20055;-30
2022/12/12 12:00:08;;;;;;;13.43;6.53;;;;;;;18.41;47.33;99059.59;5071675;28;20120;-33